sensor_id;sensor_type;location;lat;lon;timestamp;temperature;humidity
3850;DHT22;1940;51.052;13.678;2023-04-01T00:01:24;10.60;88.10
3850;DHT22;1940;51.052;13.678;2023-04-01T00:03:50;10.60;87.80
3850;DHT22;1940;51.052;13.678;2023-04-01T00:06:18;10.60;87.60
3850;DHT22;1940;51.052;13.678;2023-04-01T00:08:44;10.60;87.50
3850;DHT22;1940;51.052;13.678;2023-04-01T00:11:10;10.60;87.60
3850;DHT22;1940;51.052;13.678;2023-04-01T00:13:35;10.60;87.70
3850;DHT22;1940;51.052;13.678;2023-04-01T00:16:02;10.60;87.30
3850;DHT22;1940;51.052;13.678;2023-04-01T00:18:29;10.60;87.30
3850;DHT22;1940;51.052;13.678;2023-04-01T00:20:55;10.60;87.40
3850;DHT22;1940;51.052;13.678;2023-04-01T00:23:21;10.50;87.30
3850;DHT22;1940;51.052;13.678;2023-04-01T00:25:47;10.60;87.30
3850;DHT22;1940;51.052;13.678;2023-04-01T00:28:14;10.60;87.00
3850;DHT22;1940;51.052;13.678;2023-04-01T00:30:40;10.60;86.90
3850;DHT22;1940;51.052;13.678;2023-04-01T00:33:06;10.60;86.90
3850;DHT22;1940;51.052;13.678;2023-04-01T00:35:31;10.60;87.00
3850;DHT22;1940;51.052;13.678;2023-04-01T00:37:57;10.60;87.40
3850;DHT22;1940;51.052;13.678;2023-04-01T00:40:28;10.60;87.40
3850;DHT22;1940;51.052;13.678;2023-04-01T00:42:54;10.60;87.80
3850;DHT22;1940;51.052;13.678;2023-04-01T00:45:36;10.50;87.80
3850;DHT22;1940;51.052;13.678;2023-04-01T00:48:22;10.50;87.90
3850;DHT22;1940;51.052;13.678;2023-04-01T00:50:51;10.50;88.30
3850;DHT22;1940;51.052;13.678;2023-04-01T00:53:18;10.40;88.70
3850;DHT22;1940;51.052;13.678;2023-04-01T00:55:56;10.40;89.00
3850;DHT22;1940;51.052;13.678;2023-04-01T00:58:25;10.40;88.80
3850;DHT22;1940;51.052;13.678;2023-04-01T01:00:52;10.40;88.70
3850;DHT22;1940;51.052;13.678;2023-04-01T01:03:19;10.40;88.70
3850;DHT22;1940;51.052;13.678;2023-04-01T01:06:08;10.30;88.50
3850;DHT22;1940;51.052;13.678;2023-04-01T01:09:02;10.30;88.50
3850;DHT22;1940;51.052;13.678;2023-04-01T01:11:42;10.40;88.10
3850;DHT22;1940;51.052;13.678;2023-04-01T01:14:15;10.40;87.70
3850;DHT22;1940;51.052;13.678;2023-04-01T01:16:51;10.40;87.40
3850;DHT22;1940;51.052;13.678;2023-04-01T01:22:35;10.50;87.30
3850;DHT22;1940;51.052;13.678;2023-04-01T01:25:23;10.50;87.10
3850;DHT22;1940;51.052;13.678;2023-04-01T01:28:03;10.50;87.00
3850;DHT22;1940;51.052;13.678;2023-04-01T01:30:45;10.40;87.40
3850;DHT22;1940;51.052;13.678;2023-04-01T01:33:39;10.40;87.80
3850;DHT22;1940;51.052;13.678;2023-04-01T01:36:09;10.40;87.40
3850;DHT22;1940;51.052;13.678;2023-04-01T01:38:37;10.40;87.50
3850;DHT22;1940;51.052;13.678;2023-04-01T01:41:05;10.40;87.50
3850;DHT22;1940;51.052;13.678;2023-04-01T01:43:35;10.40;87.40
3850;DHT22;1940;51.052;13.678;2023-04-01T01:46:08;10.40;87.40
3850;DHT22;1940;51.052;13.678;2023-04-01T01:48:35;10.30;87.70
3850;DHT22;1940;51.052;13.678;2023-04-01T01:51:02;10.30;87.80
3850;DHT22;1940;51.052;13.678;2023-04-01T01:53:28;10.30;87.70
3850;DHT22;1940;51.052;13.678;2023-04-01T01:55:53;10.30;87.50
3850;DHT22;1940;51.052;13.678;2023-04-01T01:58:32;10.30;87.30
3850;DHT22;1940;51.052;13.678;2023-04-01T02:01:03;10.30;87.30
3850;DHT22;1940;51.052;13.678;2023-04-01T02:03:33;10.40;87.20
3850;DHT22;1940;51.052;13.678;2023-04-01T02:06:02;10.30;87.40
3850;DHT22;1940;51.052;13.678;2023-04-01T02:08:34;10.40;87.30
3850;DHT22;1940;51.052;13.678;2023-04-01T02:11:08;10.40;87.10
3850;DHT22;1940;51.052;13.678;2023-04-01T02:13:43;10.30;87.00
3850;DHT22;1940;51.052;13.678;2023-04-01T02:16:15;10.30;86.90
3850;DHT22;1940;51.052;13.678;2023-04-01T02:18:45;10.30;86.90
3850;DHT22;1940;51.052;13.678;2023-04-01T02:21:13;10.40;86.80
3850;DHT22;1940;51.052;13.678;2023-04-01T02:23:40;10.40;86.80
3850;DHT22;1940;51.052;13.678;2023-04-01T02:26:07;10.40;86.70
3850;DHT22;1940;51.052;13.678;2023-04-01T02:28:37;10.40;86.60
3850;DHT22;1940;51.052;13.678;2023-04-01T02:31:03;10.40;86.40
3850;DHT22;1940;51.052;13.678;2023-04-01T02:33:30;10.40;86.40
3850;DHT22;1940;51.052;13.678;2023-04-01T02:35:57;10.40;86.20
3850;DHT22;1940;51.052;13.678;2023-04-01T02:38:23;10.40;86.30
3850;DHT22;1940;51.052;13.678;2023-04-01T02:40:51;10.40;86.20
3850;DHT22;1940;51.052;13.678;2023-04-01T02:43:21;10.40;86.20
3850;DHT22;1940;51.052;13.678;2023-04-01T02:45:47;10.40;86.40
3850;DHT22;1940;51.052;13.678;2023-04-01T02:48:12;10.40;86.30
3850;DHT22;1940;51.052;13.678;2023-04-01T02:50:39;10.40;86.40
3850;DHT22;1940;51.052;13.678;2023-04-01T02:53:05;10.30;86.30
3850;DHT22;1940;51.052;13.678;2023-04-01T02:55:32;10.30;86.40
3850;DHT22;1940;51.052;13.678;2023-04-01T02:57:57;10.30;86.40
3850;DHT22;1940;51.052;13.678;2023-04-01T03:00:23;10.30;86.30
3850;DHT22;1940;51.052;13.678;2023-04-01T03:02:49;10.20;86.50
3850;DHT22;1940;51.052;13.678;2023-04-01T03:05:15;10.20;86.40
3850;DHT22;1940;51.052;13.678;2023-04-01T03:07:40;10.30;86.10
3850;DHT22;1940;51.052;13.678;2023-04-01T03:10:07;10.20;86.30
3850;DHT22;1940;51.052;13.678;2023-04-01T03:12:32;10.20;86.30
3850;DHT22;1940;51.052;13.678;2023-04-01T03:14:58;10.20;86.20
3850;DHT22;1940;51.052;13.678;2023-04-01T03:17:23;10.30;86.10
3850;DHT22;1940;51.052;13.678;2023-04-01T03:19:49;10.20;86.00
3850;DHT22;1940;51.052;13.678;2023-04-01T03:22:15;10.20;86.40
3850;DHT22;1940;51.052;13.678;2023-04-01T03:24:40;10.20;86.20
3850;DHT22;1940;51.052;13.678;2023-04-01T03:27:06;10.20;86.20
3850;DHT22;1940;51.052;13.678;2023-04-01T03:29:31;10.20;86.00
3850;DHT22;1940;51.052;13.678;2023-04-01T03:31:57;10.20;86.00
3850;DHT22;1940;51.052;13.678;2023-04-01T03:34:25;10.20;86.00
3850;DHT22;1940;51.052;13.678;2023-04-01T03:36:51;10.20;85.90
3850;DHT22;1940;51.052;13.678;2023-04-01T03:39:17;10.20;86.20
3850;DHT22;1940;51.052;13.678;2023-04-01T03:41:44;10.20;86.10
3850;DHT22;1940;51.052;13.678;2023-04-01T03:44:10;10.20;86.00
3850;DHT22;1940;51.052;13.678;2023-04-01T03:46:36;10.20;86.10
3850;DHT22;1940;51.052;13.678;2023-04-01T03:49:02;10.20;86.00
3850;DHT22;1940;51.052;13.678;2023-04-01T03:51:27;10.20;85.60
3850;DHT22;1940;51.052;13.678;2023-04-01T03:53:53;10.20;85.70
3850;DHT22;1940;51.052;13.678;2023-04-01T03:56:18;10.20;85.60
3850;DHT22;1940;51.052;13.678;2023-04-01T03:58:44;10.20;85.50
3850;DHT22;1940;51.052;13.678;2023-04-01T04:01:27;10.20;85.40
3850;DHT22;1940;51.052;13.678;2023-04-01T04:03:53;10.30;85.30
3850;DHT22;1940;51.052;13.678;2023-04-01T04:06:19;10.30;85.10
3850;DHT22;1940;51.052;13.678;2023-04-01T04:08:45;10.30;84.90
3850;DHT22;1940;51.052;13.678;2023-04-01T04:11:11;10.30;85.00
3850;DHT22;1940;51.052;13.678;2023-04-01T04:13:36;10.30;84.80
3850;DHT22;1940;51.052;13.678;2023-04-01T04:16:03;10.30;84.70
3850;DHT22;1940;51.052;13.678;2023-04-01T04:18:29;10.30;84.80
3850;DHT22;1940;51.052;13.678;2023-04-01T04:20:54;10.30;84.70
3850;DHT22;1940;51.052;13.678;2023-04-01T04:23:20;10.30;84.80
3850;DHT22;1940;51.052;13.678;2023-04-01T04:25:57;10.30;84.50
3850;DHT22;1940;51.052;13.678;2023-04-01T04:28:23;10.40;84.30
3850;DHT22;1940;51.052;13.678;2023-04-01T04:30:49;10.40;84.00
3850;DHT22;1940;51.052;13.678;2023-04-01T04:33:14;10.40;83.90
3850;DHT22;1940;51.052;13.678;2023-04-01T04:35:40;10.40;83.90
3850;DHT22;1940;51.052;13.678;2023-04-01T04:38:05;10.40;84.00
3850;DHT22;1940;51.052;13.678;2023-04-01T04:40:31;10.40;83.70
3850;DHT22;1940;51.052;13.678;2023-04-01T04:42:56;10.40;83.70
3850;DHT22;1940;51.052;13.678;2023-04-01T04:45:23;10.40;83.60
3850;DHT22;1940;51.052;13.678;2023-04-01T04:47:49;10.40;83.60
3850;DHT22;1940;51.052;13.678;2023-04-01T04:50:14;10.50;83.50
3850;DHT22;1940;51.052;13.678;2023-04-01T04:52:40;10.50;83.40
3850;DHT22;1940;51.052;13.678;2023-04-01T04:55:06;10.50;83.30
3850;DHT22;1940;51.052;13.678;2023-04-01T04:57:31;10.50;83.20
3850;DHT22;1940;51.052;13.678;2023-04-01T04:59:57;10.40;83.40
3850;DHT22;1940;51.052;13.678;2023-04-01T05:02:22;10.50;83.50
3850;DHT22;1940;51.052;13.678;2023-04-01T05:04:48;10.50;83.50
3850;DHT22;1940;51.052;13.678;2023-04-01T05:07:13;10.50;83.50
3850;DHT22;1940;51.052;13.678;2023-04-01T05:09:39;10.50;83.50
3850;DHT22;1940;51.052;13.678;2023-04-01T05:12:05;10.50;83.70
3850;DHT22;1940;51.052;13.678;2023-04-01T05:14:31;10.50;83.70
3850;DHT22;1940;51.052;13.678;2023-04-01T05:16:56;10.40;83.90
3850;DHT22;1940;51.052;13.678;2023-04-01T05:19:22;10.50;83.90
3850;DHT22;1940;51.052;13.678;2023-04-01T05:21:47;10.50;83.80
3850;DHT22;1940;51.052;13.678;2023-04-01T05:24:13;10.50;84.10
3850;DHT22;1940;51.052;13.678;2023-04-01T05:26:38;10.50;84.00
3850;DHT22;1940;51.052;13.678;2023-04-01T05:29:04;10.50;84.10
3850;DHT22;1940;51.052;13.678;2023-04-01T05:31:30;10.50;84.20
3850;DHT22;1940;51.052;13.678;2023-04-01T05:33:56;10.50;84.20
3850;DHT22;1940;51.052;13.678;2023-04-01T05:36:22;10.60;84.20
3850;DHT22;1940;51.052;13.678;2023-04-01T05:38:47;10.50;84.20
3850;DHT22;1940;51.052;13.678;2023-04-01T05:41:14;10.60;84.30
3850;DHT22;1940;51.052;13.678;2023-04-01T05:43:40;10.60;84.10
3850;DHT22;1940;51.052;13.678;2023-04-01T05:46:06;10.60;84.30
3850;DHT22;1940;51.052;13.678;2023-04-01T05:48:33;10.60;84.50
3850;DHT22;1940;51.052;13.678;2023-04-01T05:50:59;10.60;84.50
3850;DHT22;1940;51.052;13.678;2023-04-01T05:53:24;10.60;84.60
3850;DHT22;1940;51.052;13.678;2023-04-01T05:55:50;10.70;84.70
3850;DHT22;1940;51.052;13.678;2023-04-01T05:58:15;10.70;84.80
3850;DHT22;1940;51.052;13.678;2023-04-01T06:00:41;10.70;85.30
3850;DHT22;1940;51.052;13.678;2023-04-01T06:03:07;10.70;85.60
3850;DHT22;1940;51.052;13.678;2023-04-01T06:05:39;10.60;85.80
3850;DHT22;1940;51.052;13.678;2023-04-01T06:08:14;10.60;85.40
3850;DHT22;1940;51.052;13.678;2023-04-01T06:10:53;10.70;85.20
3850;DHT22;1940;51.052;13.678;2023-04-01T06:22:52;10.90;83.60
3850;DHT22;1940;51.052;13.678;2023-04-01T06:25:27;11.00;82.60
3850;DHT22;1940;51.052;13.678;2023-04-01T06:28:15;11.10;82.10
3850;DHT22;1940;51.052;13.678;2023-04-01T06:33:46;11.30;81.40
3850;DHT22;1940;51.052;13.678;2023-04-01T06:39:31;11.50;80.90
3850;DHT22;1940;51.052;13.678;2023-04-01T06:48:02;11.60;80.20
3850;DHT22;1940;51.052;13.678;2023-04-01T06:56:10;12.00;78.60
3850;DHT22;1940;51.052;13.678;2023-04-01T07:01:14;12.10;78.10
3850;DHT22;1940;51.052;13.678;2023-04-01T07:03:53;12.20;77.90
3850;DHT22;1940;51.052;13.678;2023-04-01T07:06:39;12.20;77.70
3850;DHT22;1940;51.052;13.678;2023-04-01T07:09:10;12.20;77.70
3850;DHT22;1940;51.052;13.678;2023-04-01T07:11:38;12.30;77.80
3850;DHT22;1940;51.052;13.678;2023-04-01T07:14:25;12.30;77.70
3850;DHT22;1940;51.052;13.678;2023-04-01T07:17:15;12.30;77.50
3850;DHT22;1940;51.052;13.678;2023-04-01T07:20:17;12.30;77.80
3850;DHT22;1940;51.052;13.678;2023-04-01T07:22:48;12.30;77.20
3850;DHT22;1940;51.052;13.678;2023-04-01T07:25:19;12.20;77.60
3850;DHT22;1940;51.052;13.678;2023-04-01T07:27:48;12.20;77.60
3850;DHT22;1940;51.052;13.678;2023-04-01T07:30:20;12.30;76.90
3850;DHT22;1940;51.052;13.678;2023-04-01T07:33:04;12.40;76.90
3850;DHT22;1940;51.052;13.678;2023-04-01T07:38:20;12.70;76.30
3850;DHT22;1940;51.052;13.678;2023-04-01T07:41:15;12.70;75.40
3850;DHT22;1940;51.052;13.678;2023-04-01T07:43:59;12.70;75.90
3850;DHT22;1940;51.052;13.678;2023-04-01T07:47:01;12.50;76.30
3850;DHT22;1940;51.052;13.678;2023-04-01T07:49:37;12.60;76.50
3850;DHT22;1940;51.052;13.678;2023-04-01T07:52:16;12.60;76.40
3850;DHT22;1940;51.052;13.678;2023-04-01T07:57:48;12.50;76.70
3850;DHT22;1940;51.052;13.678;2023-04-01T08:03:25;12.70;76.20
3850;DHT22;1940;51.052;13.678;2023-04-01T08:05:57;12.80;76.00
3850;DHT22;1940;51.052;13.678;2023-04-01T08:13:45;13.40;74.80
3850;DHT22;1940;51.052;13.678;2023-04-01T08:16:23;13.90;73.90
3850;DHT22;1940;51.052;13.678;2023-04-01T08:21:50;15.40;69.30
3850;DHT22;1940;51.052;13.678;2023-04-01T08:24:44;16.30;66.80
3850;DHT22;1940;51.052;13.678;2023-04-01T08:27:37;17.00;64.40
3850;DHT22;1940;51.052;13.678;2023-04-01T08:30:24;17.00;64.50
3850;DHT22;1940;51.052;13.678;2023-04-01T08:33:00;17.00;64.40
3850;DHT22;1940;51.052;13.678;2023-04-01T08:35:50;17.00;65.00
3850;DHT22;1940;51.052;13.678;2023-04-01T08:38:40;16.80;65.80
3850;DHT22;1940;51.052;13.678;2023-04-01T08:41:36;16.50;66.70
3850;DHT22;1940;51.052;13.678;2023-04-01T08:44:24;16.10;67.20
3850;DHT22;1940;51.052;13.678;2023-04-01T08:47:07;15.50;67.40
3850;DHT22;1940;51.052;13.678;2023-04-01T08:50:16;15.10;68.80
3850;DHT22;1940;51.052;13.678;2023-04-01T08:53:03;14.80;69.40
3850;DHT22;1940;51.052;13.678;2023-04-01T08:58:19;14.50;71.30
3850;DHT22;1940;51.052;13.678;2023-04-01T09:00:56;14.60;69.90
3850;DHT22;1940;51.052;13.678;2023-04-01T09:06:20;14.50;70.20
3850;DHT22;1940;51.052;13.678;2023-04-01T09:15:07;14.00;71.90
3850;DHT22;1940;51.052;13.678;2023-04-01T09:17:56;14.10;71.40
3850;DHT22;1940;51.052;13.678;2023-04-01T09:31:56;14.70;70.20
3850;DHT22;1940;51.052;13.678;2023-04-01T09:35:07;14.60;70.80
3850;DHT22;1940;51.052;13.678;2023-04-01T09:46:01;14.50;70.30
3850;DHT22;1940;51.052;13.678;2023-04-01T09:48:34;14.50;69.90
3850;DHT22;1940;51.052;13.678;2023-04-01T09:51:20;14.30;71.10
3850;DHT22;1940;51.052;13.678;2023-04-01T09:54:13;14.30;71.70
3850;DHT22;1940;51.052;13.678;2023-04-01T09:57:02;14.40;71.50
3850;DHT22;1940;51.052;13.678;2023-04-01T09:59:52;14.40;71.10
3850;DHT22;1940;51.052;13.678;2023-04-01T10:02:44;14.40;70.90
3850;DHT22;1940;51.052;13.678;2023-04-01T10:12:15;14.60;69.80
3850;DHT22;1940;51.052;13.678;2023-04-01T10:15:24;14.40;70.20
3850;DHT22;1940;51.052;13.678;2023-04-01T10:24:20;14.00;71.80
3850;DHT22;1940;51.052;13.678;2023-04-01T10:27:16;14.00;72.00
3850;DHT22;1940;51.052;13.678;2023-04-01T10:30:05;14.00;72.00
3850;DHT22;1940;51.052;13.678;2023-04-01T10:32:56;13.70;72.50
3850;DHT22;1940;51.052;13.678;2023-04-01T10:36:13;13.60;72.90
3850;DHT22;1940;51.052;13.678;2023-04-01T11:06:49;13.80;73.40
3850;DHT22;1940;51.052;13.678;2023-04-01T11:13:29;13.80;75.20
3850;DHT22;1940;51.052;13.678;2023-04-01T11:15:47;14.10;75.10
3850;DHT22;1940;51.052;13.678;2023-04-01T11:18:43;14.50;72.80
3850;DHT22;1940;51.052;13.678;2023-04-01T11:21:33;14.80;71.80
3850;DHT22;1940;51.052;13.678;2023-04-01T11:24:19;14.90;71.80
3850;DHT22;1940;51.052;13.678;2023-04-01T11:29:41;15.40;70.60
3850;DHT22;1940;51.052;13.678;2023-04-01T11:37:43;15.40;71.90
3850;DHT22;1940;51.052;13.678;2023-04-01T11:40:27;15.20;73.50
3850;DHT22;1940;51.052;13.678;2023-04-01T11:45:51;14.70;75.00
3850;DHT22;1940;51.052;13.678;2023-04-01T11:50:51;14.30;76.10
3850;DHT22;1940;51.052;13.678;2023-04-01T11:56:54;14.60;75.80
3850;DHT22;1940;51.052;13.678;2023-04-01T12:08:26;15.40;72.20
3850;DHT22;1940;51.052;13.678;2023-04-01T12:13:49;15.50;72.60
3850;DHT22;1940;51.052;13.678;2023-04-01T12:19:56;15.30;72.00
3850;DHT22;1940;51.052;13.678;2023-04-01T12:28:41;14.90;73.00
3850;DHT22;1940;51.052;13.678;2023-04-01T12:31:29;14.80;72.70
3850;DHT22;1940;51.052;13.678;2023-04-01T12:36:58;14.80;73.10
3850;DHT22;1940;51.052;13.678;2023-04-01T12:39:58;14.80;74.10
3850;DHT22;1940;51.052;13.678;2023-04-01T12:42:36;14.70;74.20
3850;DHT22;1940;51.052;13.678;2023-04-01T12:55:43;15.70;70.20
3850;DHT22;1940;51.052;13.678;2023-04-01T13:01:06;15.90;69.80
3850;DHT22;1940;51.052;13.678;2023-04-01T13:14:24;15.90;68.00
3850;DHT22;1940;51.052;13.678;2023-04-01T13:17:22;15.50;68.10
3850;DHT22;1940;51.052;13.678;2023-04-01T13:20:11;15.20;68.70
3850;DHT22;1940;51.052;13.678;2023-04-01T13:23:16;14.70;69.20
3850;DHT22;1940;51.052;13.678;2023-04-01T13:28:35;14.70;70.90
3850;DHT22;1940;51.052;13.678;2023-04-01T13:31:11;14.80;72.00
3850;DHT22;1940;51.052;13.678;2023-04-01T13:33:50;14.70;73.00
3850;DHT22;1940;51.052;13.678;2023-04-01T13:39:17;14.90;72.70
3850;DHT22;1940;51.052;13.678;2023-04-01T13:42:18;15.10;73.00
3850;DHT22;1940;51.052;13.678;2023-04-01T13:47:50;15.60;67.10
3850;DHT22;1940;51.052;13.678;2023-04-01T13:58:43;15.60;67.80
3850;DHT22;1940;51.052;13.678;2023-04-01T14:01:32;15.70;66.90
3850;DHT22;1940;51.052;13.678;2023-04-01T14:06:55;15.60;69.90
3850;DHT22;1940;51.052;13.678;2023-04-01T14:12:05;15.50;70.30
3850;DHT22;1940;51.052;13.678;2023-04-01T14:15:03;15.50;70.70
3850;DHT22;1940;51.052;13.678;2023-04-01T14:20:36;15.80;69.10
3850;DHT22;1940;51.052;13.678;2023-04-01T14:23:47;15.60;70.10
3850;DHT22;1940;51.052;13.678;2023-04-01T14:26:13;15.60;69.60
3850;DHT22;1940;51.052;13.678;2023-04-01T14:34:40;15.40;69.00
3850;DHT22;1940;51.052;13.678;2023-04-01T14:37:25;15.40;69.30
3850;DHT22;1940;51.052;13.678;2023-04-01T14:40:21;15.40;69.70
3850;DHT22;1940;51.052;13.678;2023-04-01T14:43:14;15.00;70.30
3850;DHT22;1940;51.052;13.678;2023-04-01T14:48:38;14.50;71.90
3850;DHT22;1940;51.052;13.678;2023-04-01T14:51:21;14.70;70.90
3850;DHT22;1940;51.052;13.678;2023-04-01T14:54:13;14.60;70.20
3850;DHT22;1940;51.052;13.678;2023-04-01T14:56:51;14.60;70.10
3850;DHT22;1940;51.052;13.678;2023-04-01T14:59:28;14.50;70.50
3850;DHT22;1940;51.052;13.678;2023-04-01T15:13:00;14.10;72.60
3850;DHT22;1940;51.052;13.678;2023-04-01T15:16:08;14.00;72.10
3850;DHT22;1940;51.052;13.678;2023-04-01T15:24:46;14.00;72.70
3850;DHT22;1940;51.052;13.678;2023-04-01T15:27:38;14.20;72.30
3850;DHT22;1940;51.052;13.678;2023-04-01T15:30:23;14.10;73.00
3850;DHT22;1940;51.052;13.678;2023-04-01T15:33:10;14.10;73.50
3850;DHT22;1940;51.052;13.678;2023-04-01T15:36:04;14.00;74.10
3850;DHT22;1940;51.052;13.678;2023-04-01T15:38:48;13.90;74.40
3850;DHT22;1940;51.052;13.678;2023-04-01T15:43:55;13.80;74.30
3850;DHT22;1940;51.052;13.678;2023-04-01T15:46:43;13.60;74.40
3850;DHT22;1940;51.052;13.678;2023-04-01T15:49:15;13.60;74.80
3850;DHT22;1940;51.052;13.678;2023-04-01T16:00:28;13.50;73.90
3850;DHT22;1940;51.052;13.678;2023-04-01T16:09:02;13.50;73.90
3850;DHT22;1940;51.052;13.678;2023-04-01T16:14:55;13.60;74.50
3850;DHT22;1940;51.052;13.678;2023-04-01T16:20:51;13.60;73.80
3850;DHT22;1940;51.052;13.678;2023-04-01T16:23:30;13.60;73.60
3850;DHT22;1940;51.052;13.678;2023-04-01T16:31:34;13.50;74.30
3850;DHT22;1940;51.052;13.678;2023-04-01T16:34:18;13.40;74.60
3850;DHT22;1940;51.052;13.678;2023-04-01T16:36:48;13.40;74.80
3850;DHT22;1940;51.052;13.678;2023-04-01T16:41:52;13.30;75.20
3850;DHT22;1940;51.052;13.678;2023-04-01T16:44:24;13.30;75.60
3850;DHT22;1940;51.052;13.678;2023-04-01T16:46:59;13.40;75.80
3850;DHT22;1940;51.052;13.678;2023-04-01T16:49:50;13.30;75.90
3850;DHT22;1940;51.052;13.678;2023-04-01T16:52:34;13.30;76.20
3850;DHT22;1940;51.052;13.678;2023-04-01T16:55:16;13.20;76.90
3850;DHT22;1940;51.052;13.678;2023-04-01T16:58:01;13.00;77.50
3850;DHT22;1940;51.052;13.678;2023-04-01T17:00:38;13.00;78.00
3850;DHT22;1940;51.052;13.678;2023-04-01T17:03:12;13.00;78.10
3850;DHT22;1940;51.052;13.678;2023-04-01T17:11:28;12.70;81.40
3850;DHT22;1940;51.052;13.678;2023-04-01T17:20:02;12.70;82.50
3850;DHT22;1940;51.052;13.678;2023-04-01T17:22:52;12.70;82.30
3850;DHT22;1940;51.052;13.678;2023-04-01T17:33:37;12.80;81.70
3850;DHT22;1940;51.052;13.678;2023-04-01T17:36:09;12.80;81.80
3850;DHT22;1940;51.052;13.678;2023-04-01T17:38:43;12.80;82.50
3850;DHT22;1940;51.052;13.678;2023-04-01T17:41:36;12.80;83.20
3850;DHT22;1940;51.052;13.678;2023-04-01T17:44:31;12.80;83.40
3850;DHT22;1940;51.052;13.678;2023-04-01T17:52:55;12.70;84.00
3850;DHT22;1940;51.052;13.678;2023-04-01T17:58:30;12.60;84.30
3850;DHT22;1940;51.052;13.678;2023-04-01T18:04:07;12.70;82.90
3850;DHT22;1940;51.052;13.678;2023-04-01T18:20:24;12.70;86.10
3850;DHT22;1940;51.052;13.678;2023-04-01T18:22:58;12.60;86.30
3850;DHT22;1940;51.052;13.678;2023-04-01T18:25:49;12.60;86.50
3850;DHT22;1940;51.052;13.678;2023-04-01T18:28:30;12.60;86.70
3850;DHT22;1940;51.052;13.678;2023-04-01T18:33:48;12.60;87.30
3850;DHT22;1940;51.052;13.678;2023-04-01T18:39:21;12.50;87.30
3850;DHT22;1940;51.052;13.678;2023-04-01T18:42:08;12.50;87.10
3850;DHT22;1940;51.052;13.678;2023-04-01T18:44:50;12.40;87.10
3850;DHT22;1940;51.052;13.678;2023-04-01T18:47:36;12.40;86.80
3850;DHT22;1940;51.052;13.678;2023-04-01T18:50:43;12.30;86.80
3850;DHT22;1940;51.052;13.678;2023-04-01T18:55:49;12.20;86.70
3850;DHT22;1940;51.052;13.678;2023-04-01T19:03:40;12.20;87.70
3850;DHT22;1940;51.052;13.678;2023-04-01T19:06:19;12.20;87.90
3850;DHT22;1940;51.052;13.678;2023-04-01T19:08:45;12.20;88.10
3850;DHT22;1940;51.052;13.678;2023-04-01T19:11:42;12.20;88.40
3850;DHT22;1940;51.052;13.678;2023-04-01T19:28:25;11.60;88.70
3850;DHT22;1940;51.052;13.678;2023-04-01T19:30:58;11.50;88.90
3850;DHT22;1940;51.052;13.678;2023-04-01T19:33:57;11.40;88.90
3850;DHT22;1940;51.052;13.678;2023-04-01T19:42:09;11.30;88.10
3850;DHT22;1940;51.052;13.678;2023-04-01T19:47:39;11.20;88.00
3850;DHT22;1940;51.052;13.678;2023-04-01T19:50:36;11.20;88.00
3850;DHT22;1940;51.052;13.678;2023-04-01T19:59:02;11.20;88.20
3850;DHT22;1940;51.052;13.678;2023-04-01T20:01:41;11.20;88.40
3850;DHT22;1940;51.052;13.678;2023-04-01T20:07:27;11.20;88.80
3850;DHT22;1940;51.052;13.678;2023-04-01T20:10:14;11.20;88.90
3850;DHT22;1940;51.052;13.678;2023-04-01T20:13:23;11.20;89.10
3850;DHT22;1940;51.052;13.678;2023-04-01T20:16:06;11.10;89.50
3850;DHT22;1940;51.052;13.678;2023-04-01T20:18:44;11.10;90.10
3850;DHT22;1940;51.052;13.678;2023-04-01T20:23:52;11.00;90.70
3850;DHT22;1940;51.052;13.678;2023-04-01T20:26:25;11.00;91.10
3850;DHT22;1940;51.052;13.678;2023-04-01T20:29:18;11.00;91.30
3850;DHT22;1940;51.052;13.678;2023-04-01T20:37:35;11.00;91.80
3850;DHT22;1940;51.052;13.678;2023-04-01T20:40:17;11.00;91.70
3850;DHT22;1940;51.052;13.678;2023-04-01T20:43:00;11.00;91.80
3850;DHT22;1940;51.052;13.678;2023-04-01T20:45:48;11.00;91.90
3850;DHT22;1940;51.052;13.678;2023-04-01T20:51:31;11.10;91.70
3850;DHT22;1940;51.052;13.678;2023-04-01T20:54:19;11.10;91.70
3850;DHT22;1940;51.052;13.678;2023-04-01T20:59:34;11.00;92.00
3850;DHT22;1940;51.052;13.678;2023-04-01T21:02:32;10.90;92.40
3850;DHT22;1940;51.052;13.678;2023-04-01T21:05:42;10.80;92.70
3850;DHT22;1940;51.052;13.678;2023-04-01T21:08:16;10.70;93.10
3850;DHT22;1940;51.052;13.678;2023-04-01T21:13:33;10.70;93.80
3850;DHT22;1940;51.052;13.678;2023-04-01T21:16:24;10.70;94.00
3850;DHT22;1940;51.052;13.678;2023-04-01T21:22:52;10.60;94.50
3850;DHT22;1940;51.052;13.678;2023-04-01T21:41:57;10.30;95.20
3850;DHT22;1940;51.052;13.678;2023-04-01T21:47:28;10.00;95.20
3850;DHT22;1940;51.052;13.678;2023-04-01T21:50:14;10.00;95.20
3850;DHT22;1940;51.052;13.678;2023-04-01T21:55:59;9.90;95.20
3850;DHT22;1940;51.052;13.678;2023-04-01T22:07:29;9.60;95.20
3850;DHT22;1940;51.052;13.678;2023-04-01T22:10:51;9.60;95.20
3850;DHT22;1940;51.052;13.678;2023-04-01T22:18:21;9.50;95.20
3850;DHT22;1940;51.052;13.678;2023-04-01T22:29:50;9.40;95.20
3850;DHT22;1940;51.052;13.678;2023-04-01T22:32:25;9.30;95.20
3850;DHT22;1940;51.052;13.678;2023-04-01T22:35:13;9.30;95.20
3850;DHT22;1940;51.052;13.678;2023-04-01T22:38:06;9.30;95.20
3850;DHT22;1940;51.052;13.678;2023-04-01T22:41:01;9.30;95.20
3850;DHT22;1940;51.052;13.678;2023-04-01T22:43:36;9.30;95.20
3850;DHT22;1940;51.052;13.678;2023-04-01T22:46:15;9.20;95.20
3850;DHT22;1940;51.052;13.678;2023-04-01T22:48:51;9.20;95.20
3850;DHT22;1940;51.052;13.678;2023-04-01T22:51:37;9.20;95.20
3850;DHT22;1940;51.052;13.678;2023-04-01T22:54:18;9.10;95.20
3850;DHT22;1940;51.052;13.678;2023-04-01T22:57:00;9.10;95.20
3850;DHT22;1940;51.052;13.678;2023-04-01T22:59:37;9.10;95.20
3850;DHT22;1940;51.052;13.678;2023-04-01T23:02:14;9.00;95.20
3850;DHT22;1940;51.052;13.678;2023-04-01T23:04:43;9.00;95.20
3850;DHT22;1940;51.052;13.678;2023-04-01T23:10:03;9.00;95.20
3850;DHT22;1940;51.052;13.678;2023-04-01T23:12:32;9.00;95.20
3850;DHT22;1940;51.052;13.678;2023-04-01T23:15:00;9.00;95.20
3850;DHT22;1940;51.052;13.678;2023-04-01T23:26:24;8.90;95.20
3850;DHT22;1940;51.052;13.678;2023-04-01T23:28:53;8.90;95.20
3850;DHT22;1940;51.052;13.678;2023-04-01T23:31:39;8.90;95.20
3850;DHT22;1940;51.052;13.678;2023-04-01T23:36:39;8.70;95.20
3850;DHT22;1940;51.052;13.678;2023-04-01T23:39:24;8.70;95.20
3850;DHT22;1940;51.052;13.678;2023-04-01T23:41:53;8.70;95.20
3850;DHT22;1940;51.052;13.678;2023-04-01T23:44:20;8.60;95.20
3850;DHT22;1940;51.052;13.678;2023-04-01T23:46:47;8.60;95.20
3850;DHT22;1940;51.052;13.678;2023-04-01T23:49:17;8.50;95.20
3850;DHT22;1940;51.052;13.678;2023-04-01T23:51:58;8.50;95.20
3850;DHT22;1940;51.052;13.678;2023-04-01T23:54:39;8.40;95.20
3850;DHT22;1940;51.052;13.678;2023-04-01T23:57:12;8.50;95.20
3850;DHT22;1940;51.052;13.678;2023-04-01T23:59:39;8.40;95.20
